Time;durP1;ratioP1;P1;durP2;ratioP2;P2;SDS_P1;SDS_P2;PMS_P1;PMS_P2;Temp;Humidity;BMP_temperature;BMP_pressure;BME280_temperature;BME280_humidity;BME280_pressure;Samples;Min_cycle;Max_cycle;Signal;HPM_P1;HPM_P2
2023/12/08 00:02:05;;;;;;;41.00;19.10;;;;;;;-1.27;77.68;101720.99;107560;1253;110046;-65
2023/12/08 00:04:33;;;;;;;29.70;17.10;;;;;;;-1.28;77.72;101713.95;107554;1252;108161;-64
2023/12/08 00:07:02;;;;;;;38.40;18.10;;;;;;;-1.26;77.79;101715.32;107615;1255;99192;-64
2023/12/08 00:09:31;;;;;;;36.10;18.40;;;;;;;-1.23;77.64;101711.75;107613;1255;99087;-63
2023/12/08 00:12:01;;;;;;;38.60;19.70;;;;;;;-1.22;77.58;101716.84;107659;1251;112434;-65
2023/12/08 00:14:30;;;;;;;33.10;18.30;;;;;;;-1.20;77.61;101716.06;107588;1251;109269;-63
2023/12/08 00:16:59;;;;;;;39.90;20.60;;;;;;;-1.18;77.57;101724.13;107646;1250;107858;-63
2023/12/08 00:19:28;;;;;;;33.10;18.70;;;;;;;-1.16;77.39;101728.65;107593;1250;99994;-63
2023/12/08 00:21:57;;;;;;;36.20;18.10;;;;;;;-1.14;77.76;101726.48;107631;1249;99178;-63
2023/12/08 00:24:25;;;;;;;29.10;17.20;;;;;;;-1.13;77.58;101732.96;107686;1251;112683;-63
2023/12/08 00:26:54;;;;;;;32.80;17.60;;;;;;;-1.11;77.57;101727.80;107539;1253;109107;-65
2023/12/08 00:29:22;;;;;;;34.70;18.30;;;;;;;-1.14;77.33;101730.88;107617;1251;108285;-63
2023/12/08 00:31:50;;;;;;;34.00;17.30;;;;;;;-1.13;77.35;101728.58;107604;1251;99170;-64
2023/12/08 00:34:19;;;;;;;30.80;17.60;;;;;;;-1.12;77.55;101721.50;107588;1251;99794;-63
2023/12/08 00:36:50;;;;;;;41.60;18.70;;;;;;;-1.11;77.21;101719.36;107683;1251;112100;-62
2023/12/08 00:39:19;;;;;;;34.30;18.10;;;;;;;-1.11;77.44;101717.08;107590;1254;109743;-63
2023/12/08 00:41:47;;;;;;;30.70;16.80;;;;;;;-1.13;77.53;101712.90;107562;1251;107452;-64
2023/12/08 00:44:16;;;;;;;33.60;18.50;;;;;;;-1.16;77.60;101711.22;107593;1253;99175;-62
2023/12/08 00:46:44;;;;;;;34.20;16.80;;;;;;;-1.18;77.44;101705.98;107536;1252;99251;-63
2023/12/08 00:49:12;;;;;;;34.00;18.60;;;;;;;-1.20;77.69;101710.44;107573;1252;112801;-64
2023/12/08 00:51:41;;;;;;;34.10;18.20;;;;;;;-1.22;77.61;101708.38;107569;1253;109383;-64
2023/12/08 00:54:10;;;;;;;39.20;18.10;;;;;;;-1.25;77.65;101708.43;107572;1252;108481;-63
2023/12/08 00:56:38;;;;;;;37.50;17.90;;;;;;;-1.26;77.94;101711.64;107564;1255;99059;-63
2023/12/08 00:59:06;;;;;;;35.70;18.50;;;;;;;-1.27;77.84;101713.23;107616;1251;99173;-63
2023/12/08 01:01:35;;;;;;;40.30;19.00;;;;;;;-1.26;77.72;101715.68;107634;1251;112717;-64
2023/12/08 01:04:03;;;;;;;35.00;18.50;;;;;;;-1.24;77.96;101714.76;107631;1251;109471;-64
2023/12/08 01:06:32;;;;;;;31.20;17.20;;;;;;;-1.23;77.79;101711.73;107553;1251;108691;-65
2023/12/08 01:09:00;;;;;;;37.40;18.10;;;;;;;-1.23;77.62;101705.91;107528;1251;99212;-65
2023/12/08 01:11:29;;;;;;;36.10;17.30;;;;;;;-1.21;77.69;101707.11;107536;1254;99052;-64
2023/12/08 01:13:57;;;;;;;40.90;19.20;;;;;;;-1.20;77.78;101706.20;107590;1252;112142;-63
2023/12/08 01:16:26;;;;;;;41.10;18.40;;;;;;;-1.17;77.83;101705.79;107560;1253;109244;-64
2023/12/08 01:18:54;;;;;;;38.70;19.20;;;;;;;-1.13;77.95;101710.09;107562;1253;108394;-63
2023/12/08 01:21:23;;;;;;;33.10;17.00;;;;;;;-1.10;77.95;101704.20;107569;1252;99170;-63
2023/12/08 01:23:51;;;;;;;34.70;18.40;;;;;;;-1.11;77.66;101699.98;107657;1253;99096;-63
2023/12/08 01:26:20;;;;;;;34.70;17.60;;;;;;;-1.12;77.71;101697.03;107669;1251;112849;-63
2023/12/08 01:28:48;;;;;;;34.30;18.40;;;;;;;-1.14;77.55;101694.80;107615;1254;110108;-63
2023/12/08 01:31:16;;;;;;;37.00;16.90;;;;;;;-1.21;77.88;101694.79;107600;1254;108124;-64
2023/12/08 01:33:45;;;;;;;34.10;16.60;;;;;;;-1.29;77.74;101694.63;107558;1253;99176;-65
2023/12/08 01:36:14;;;;;;;31.30;17.40;;;;;;;-1.34;78.21;101696.33;107668;1251;99210;-65
2023/12/08 01:39:03;;;;;;;27.90;15.40;;;;;;;-1.43;78.68;101700.59;107581;1252;113327;-65
2023/12/08 01:41:31;;;;;;;33.20;16.50;;;;;;;-1.51;78.96;101705.70;107622;1251;108809;-65
2023/12/08 01:44:00;;;;;;;37.40;18.50;;;;;;;-1.58;79.13;101701.09;107626;1251;107902;-64
2023/12/08 01:46:30;;;;;;;36.20;17.90;;;;;;;-1.60;79.10;101702.55;107608;1253;99186;-65
2023/12/08 01:48:58;;;;;;;34.30;18.10;;;;;;;-1.61;79.08;101701.01;107645;1251;99179;-63
2023/12/08 01:51:27;;;;;;;33.50;16.80;;;;;;;-1.61;79.29;101700.11;107598;1251;113168;-64
2023/12/08 01:53:56;;;;;;;33.60;17.10;;;;;;;-1.61;79.22;101696.60;107607;1251;110121;-63
2023/12/08 01:56:27;;;;;;;39.00;18.00;;;;;;;-1.61;79.43;101696.25;107519;1252;107470;-62
2023/12/08 01:58:55;;;;;;;35.20;17.80;;;;;;;-1.59;79.43;101698.15;107578;1254;99847;-63
2023/12/08 02:01:25;;;;;;;35.80;18.20;;;;;;;-1.61;79.25;101700.13;107665;1251;99185;-63
2023/12/08 02:03:53;;;;;;;36.30;18.10;;;;;;;-1.60;79.39;101698.87;107587;1252;113421;-63
2023/12/08 02:06:22;;;;;;;33.50;16.80;;;;;;;-1.58;79.46;101700.05;107618;1251;109285;-63
2023/12/08 02:08:50;;;;;;;33.80;17.50;;;;;;;-1.57;79.36;101700.55;107612;1254;107966;-64
2023/12/08 02:11:19;;;;;;;38.10;18.00;;;;;;;-1.53;79.46;101705.23;107526;1252;99165;-65
2023/12/08 02:13:49;;;;;;;36.50;18.50;;;;;;;-1.49;79.24;101702.15;107576;1255;99088;-67
2023/12/08 02:16:49;;;;;;;33.80;18.20;;;;;;;-1.48;79.25;101702.80;107666;1251;112602;-67
2023/12/08 02:19:18;;;;;;;36.70;17.40;;;;;;;-1.46;79.10;101705.24;107628;1254;108330;-65
2023/12/08 02:21:47;;;;;;;36.80;18.20;;;;;;;-1.44;79.24;101702.91;107596;1252;108490;-64
2023/12/08 02:24:19;;;;;;;29.50;17.10;;;;;;;-1.41;79.30;101706.89;107569;1253;100436;-64
2023/12/08 02:26:49;;;;;;;35.60;17.50;;;;;;;-1.37;79.11;101709.42;107635;1253;99073;-64
2023/12/08 02:29:17;;;;;;;39.60;18.20;;;;;;;-1.35;79.23;101713.08;107633;1253;111429;-64
2023/12/08 02:31:53;;;;;;;35.40;17.80;;;;;;;-1.33;79.19;101717.07;107614;1253;109806;-63
2023/12/08 02:34:26;;;;;;;34.30;16.40;;;;;;;-1.32;78.93;101722.69;107538;1251;107013;-64
2023/12/08 02:36:56;;;;;;;32.60;17.10;;;;;;;-1.32;78.88;101727.09;107609;1253;99192;-62
2023/12/08 02:39:27;;;;;;;39.90;18.00;;;;;;;-1.32;78.91;101727.43;107653;1253;99202;-63
2023/12/08 02:41:55;;;;;;;34.10;16.80;;;;;;;-1.30;78.85;101726.51;107637;1251;111975;-64
2023/12/08 02:44:23;;;;;;;35.00;17.60;;;;;;;-1.30;78.84;101729.14;107584;1251;110647;-64
2023/12/08 02:46:52;;;;;;;33.60;16.50;;;;;;;-1.29;78.80;101728.06;107655;1251;108141;-64
2023/12/08 02:49:20;;;;;;;34.60;16.50;;;;;;;-1.29;78.89;101730.34;107586;1250;99178;-64
2023/12/08 02:51:49;;;;;;;38.10;17.70;;;;;;;-1.31;78.42;101732.52;107574;1251;99713;-65
2023/12/08 02:54:18;;;;;;;38.90;19.30;;;;;;;-1.31;78.70;101730.39;107551;1254;113217;-66
2023/12/08 02:56:46;;;;;;;35.30;18.40;;;;;;;-1.27;78.90;101724.34;107570;1251;109267;-63
2023/12/08 02:59:14;;;;;;;36.50;18.60;;;;;;;-1.21;79.18;101725.59;107516;1253;109455;-62
2023/12/08 03:01:43;;;;;;;42.50;20.10;;;;;;;-1.18;79.07;101732.03;107599;1253;99195;-63
2023/12/08 03:04:11;;;;;;;49.60;18.90;;;;;;;-1.16;78.85;101730.58;107643;1253;99193;-63
2023/12/08 03:06:40;;;;;;;37.90;18.70;;;;;;;-1.15;78.80;101736.37;107628;1253;113300;-64
2023/12/08 03:09:09;;;;;;;39.60;19.90;;;;;;;-1.16;78.61;101733.20;107622;1253;110040;-63
2023/12/08 03:11:37;;;;;;;39.10;18.60;;;;;;;-1.18;78.25;101737.84;107590;1253;106091;-63
2023/12/08 03:14:06;;;;;;;39.40;18.20;;;;;;;-1.21;78.19;101735.11;107562;1253;99258;-62
2023/12/08 03:16:34;;;;;;;43.50;20.20;;;;;;;-1.24;78.18;101739.75;107624;1251;99812;-62
2023/12/08 03:19:03;;;;;;;33.70;17.50;;;;;;;-1.28;78.14;101740.17;107603;1252;113142;-63
2023/12/08 03:21:32;;;;;;;42.20;19.90;;;;;;;-1.26;78.44;101736.81;107557;1254;108741;-64
2023/12/08 03:24:01;;;;;;;36.90;17.50;;;;;;;-1.24;78.30;101735.52;107607;1251;108327;-64
2023/12/08 03:26:29;;;;;;;41.60;18.60;;;;;;;-1.22;78.51;101739.16;107633;1253;99029;-64
2023/12/08 03:28:57;;;;;;;34.00;16.20;;;;;;;-1.24;78.22;101737.45;107592;1251;99121;-66
2023/12/08 03:31:29;;;;;;;37.10;17.50;;;;;;;-1.26;78.07;101735.91;107609;1253;113408;-64
2023/12/08 03:33:58;;;;;;;38.90;17.70;;;;;;;-1.29;78.20;101734.05;107667;1253;110473;-62
2023/12/08 03:36:26;;;;;;;42.10;19.80;;;;;;;-1.29;78.28;101732.80;107626;1253;108120;-63
2023/12/08 03:38:55;;;;;;;35.80;18.20;;;;;;;-1.29;77.99;101735.81;107639;1251;99257;-63
2023/12/08 03:41:23;;;;;;;34.90;18.60;;;;;;;-1.31;78.24;101735.49;107588;1256;99755;-63
2023/12/08 03:43:51;;;;;;;32.30;16.80;;;;;;;-1.29;78.26;101732.47;107330;1253;112684;-62
2023/12/08 03:46:20;;;;;;;40.60;17.90;;;;;;;-1.26;78.58;101728.70;107623;1251;109644;-62
2023/12/08 03:48:49;;;;;;;37.70;18.00;;;;;;;-1.24;78.32;101727.07;107571;1252;109138;-64
2023/12/08 03:51:22;;;;;;;46.50;19.20;;;;;;;-1.22;78.31;101719.81;107568;1251;99263;-63
2023/12/08 03:53:51;;;;;;;40.30;18.40;;;;;;;-1.22;78.08;101717.88;107597;1251;99070;-63
2023/12/08 03:56:20;;;;;;;39.10;18.70;;;;;;;-1.25;78.21;101724.80;107587;1251;113118;-64
2023/12/08 03:58:48;;;;;;;53.00;25.50;;;;;;;-1.24;78.35;101727.79;107631;1253;109046;-64
2023/12/08 04:01:17;;;;;;;40.00;18.20;;;;;;;-1.25;78.25;101724.80;107471;1253;108522;-63
2023/12/08 04:03:46;;;;;;;42.00;20.50;;;;;;;-1.27;78.16;101725.55;107563;1253;99191;-64
2023/12/08 04:06:15;;;;;;;45.20;21.10;;;;;;;-1.27;78.22;101726.78;107650;1251;99196;-65
2023/12/08 04:08:43;;;;;;;51.90;24.10;;;;;;;-1.26;78.12;101732.92;107547;1251;113433;-64
2023/12/08 04:11:12;;;;;;;52.70;23.00;;;;;;;-1.29;77.96;101736.14;107591;1251;109542;-64
2023/12/08 04:13:40;;;;;;;44.00;19.20;;;;;;;-1.30;78.10;101734.43;107553;1251;108158;-62
2023/12/08 04:16:09;;;;;;;43.30;19.30;;;;;;;-1.32;78.19;101733.77;107536;1253;99169;-63
2023/12/08 04:18:38;;;;;;;45.00;19.90;;;;;;;-1.33;78.35;101734.67;107563;1253;99058;-63
2023/12/08 04:21:07;;;;;;;37.20;19.50;;;;;;;-1.32;78.18;101734.66;107605;1253;112640;-63
2023/12/08 04:23:36;;;;;;;42.60;18.80;;;;;;;-1.33;77.92;101731.33;107562;1254;109544;-63
2023/12/08 04:26:06;;;;;;;44.30;19.50;;;;;;;-1.35;77.83;101737.88;107527;1253;107860;-64
2023/12/08 04:28:35;;;;;;;39.90;18.40;;;;;;;-1.36;78.10;101737.21;107557;1253;99072;-64
2023/12/08 04:31:04;;;;;;;41.00;18.40;;;;;;;-1.35;78.06;101740.36;107618;1253;99827;-66
2023/12/08 04:33:32;;;;;;;45.20;20.80;;;;;;;-1.35;77.93;101743.70;107628;1251;113945;-64
2023/12/08 04:36:01;;;;;;;49.60;19.60;;;;;;;-1.34;78.05;101743.33;107528;1253;109737;-63
2023/12/08 04:38:29;;;;;;;54.70;23.10;;;;;;;-1.34;77.86;101740.49;107519;1253;106864;-64
2023/12/08 04:40:57;;;;;;;49.20;23.10;;;;;;;-1.36;77.88;101740.04;107579;1254;99197;-63
2023/12/08 04:43:25;;;;;;;41.60;20.80;;;;;;;-1.38;77.89;101745.02;107590;1253;99739;-63
2023/12/08 04:45:55;;;;;;;37.60;18.20;;;;;;;-1.37;78.10;101746.57;107541;1253;112764;-63
2023/12/08 04:48:23;;;;;;;54.50;22.10;;;;;;;-1.33;78.29;101743.81;107555;1253;109660;-63
2023/12/08 04:50:52;;;;;;;50.20;25.20;;;;;;;-1.31;78.02;101742.38;107530;1258;108599;-61
2023/12/08 04:53:21;;;;;;;54.50;24.70;;;;;;;-1.35;77.63;101745.80;107612;1256;99712;-61
2023/12/08 04:55:49;;;;;;;55.00;22.00;;;;;;;-1.32;78.07;101747.69;107593;1251;99137;-63
2023/12/08 04:58:17;;;;;;;50.70;22.20;;;;;;;-1.28;78.27;101743.17;107546;1253;112782;-63
2023/12/08 05:00:47;;;;;;;40.30;19.20;;;;;;;-1.28;78.21;101745.11;107541;1253;109864;-65
2023/12/08 05:03:16;;;;;;;42.00;18.50;;;;;;;-1.30;77.99;101746.92;107526;1251;108745;-64
2023/12/08 05:05:44;;;;;;;57.20;22.20;;;;;;;-1.32;77.69;101746.09;107580;1254;99077;-63
2023/12/08 05:08:13;;;;;;;42.60;20.20;;;;;;;-1.32;77.89;101742.57;107614;1253;99158;-64
2023/12/08 05:10:41;;;;;;;46.70;20.30;;;;;;;-1.31;77.84;101745.37;107575;1252;112182;-63
2023/12/08 05:13:11;;;;;;;40.70;18.40;;;;;;;-1.35;77.81;101744.73;107596;1252;109842;-63
2023/12/08 05:15:40;;;;;;;45.80;20.00;;;;;;;-1.39;77.60;101739.72;107486;1250;108278;-62
2023/12/08 05:18:08;;;;;;;47.70;20.70;;;;;;;-1.37;78.03;101736.35;107493;1253;99192;-62
2023/12/08 05:20:37;;;;;;;37.10;18.60;;;;;;;-1.36;78.02;101736.85;107574;1253;99076;-64
2023/12/08 05:23:06;;;;;;;36.50;18.90;;;;;;;-1.35;77.82;101738.23;107557;1253;112819;-62
2023/12/08 05:25:34;;;;;;;45.20;20.30;;;;;;;-1.34;78.07;101741.02;107558;1251;109292;-62
2023/12/08 05:28:03;;;;;;;46.90;19.40;;;;;;;-1.31;78.10;101742.38;107509;1253;107843;-64
2023/12/08 05:30:31;;;;;;;45.00;18.60;;;;;;;-1.36;77.69;101738.80;107556;1253;99169;-62
2023/12/08 05:33:00;;;;;;;39.80;19.00;;;;;;;-1.46;77.62;101742.35;107560;1253;99710;-63
2023/12/08 05:35:28;;;;;;;47.60;19.50;;;;;;;-1.52;77.68;101740.39;107550;1254;112725;-63
2023/12/08 05:37:57;;;;;;;41.80;19.00;;;;;;;-1.53;77.78;101743.59;107622;1253;109816;-63
2023/12/08 05:40:25;;;;;;;44.40;20.10;;;;;;;-1.52;77.91;101742.86;107619;1253;107908;-63
2023/12/08 05:42:54;;;;;;;48.00;21.00;;;;;;;-1.50;77.77;101751.25;107470;1253;99292;-63
2023/12/08 05:45:22;;;;;;;36.80;18.00;;;;;;;-1.47;78.09;101751.71;107576;1255;99088;-63
2023/12/08 05:47:50;;;;;;;42.50;19.80;;;;;;;-1.49;77.85;101748.05;107659;1251;112768;-62
2023/12/08 05:50:19;;;;;;;49.30;22.60;;;;;;;-1.49;77.74;101750.52;107655;1252;108068;-63
2023/12/08 05:52:48;;;;;;;55.90;22.60;;;;;;;-1.55;77.79;101751.89;107573;1254;107897;-62
2023/12/08 05:55:17;;;;;;;43.00;21.40;;;;;;;-1.58;77.65;101747.55;107637;1252;99157;-61
2023/12/08 05:57:45;;;;;;;56.70;22.90;;;;;;;-1.54;78.09;101747.48;107517;1253;99062;-63
2023/12/08 06:00:17;;;;;;;42.40;20.60;;;;;;;-1.50;78.07;101758.11;107614;1253;113426;-62
2023/12/08 06:02:46;;;;;;;45.10;21.10;;;;;;;-1.48;78.20;101764.92;107637;1255;110151;-61
2023/12/08 06:05:15;;;;;;;42.10;20.00;;;;;;;-1.46;78.13;101765.58;107656;1251;108281;-62
2023/12/08 06:07:43;;;;;;;42.90;19.60;;;;;;;-1.45;77.93;101765.57;107546;1252;99067;-61
2023/12/08 06:10:12;;;;;;;39.40;19.20;;;;;;;-1.44;78.00;101764.31;107493;1253;99054;-62
2023/12/08 06:12:40;;;;;;;46.60;19.90;;;;;;;-1.42;77.93;101767.09;107534;1252;113143;-62
2023/12/08 06:15:10;;;;;;;39.50;18.90;;;;;;;-1.43;77.69;101769.21;107549;1253;109932;-61
2023/12/08 06:17:39;;;;;;;44.20;20.50;;;;;;;-1.47;77.63;101772.14;107536;1252;107407;-63
2023/12/08 06:20:09;;;;;;;39.70;19.00;;;;;;;-1.47;77.42;101777.91;107509;1254;99185;-63
2023/12/08 06:22:38;;;;;;;36.90;18.30;;;;;;;-1.45;77.74;101778.60;107598;1255;99711;-64
2023/12/08 06:25:07;;;;;;;45.00;21.10;;;;;;;-1.47;77.29;101785.67;107583;1251;113426;-64
2023/12/08 06:27:37;;;;;;;48.30;22.10;;;;;;;-1.54;77.11;101784.06;107591;1253;109948;-64
2023/12/08 06:30:07;;;;;;;44.80;20.50;;;;;;;-1.48;77.47;101781.83;107519;1254;108314;-63
2023/12/08 06:32:36;;;;;;;44.20;21.00;;;;;;;-1.43;77.65;101779.77;107555;1253;99770;-61
2023/12/08 06:35:05;;;;;;;48.10;21.50;;;;;;;-1.37;77.40;101791.80;107571;1256;99186;-62
2023/12/08 06:37:33;;;;;;;49.90;22.50;;;;;;;-1.39;76.98;101794.65;107672;1251;113332;-62
2023/12/08 06:40:03;;;;;;;50.60;25.20;;;;;;;-1.39;77.27;101800.27;107585;1253;109801;-62
2023/12/08 06:42:31;;;;;;;51.30;24.90;;;;;;;-1.42;76.83;101799.27;107613;1254;106646;-62
2023/12/08 06:44:59;;;;;;;54.10;25.30;;;;;;;-1.43;76.80;101805.46;107557;1252;99168;-62
2023/12/08 06:47:28;;;;;;;52.10;24.70;;;;;;;-1.46;76.81;101809.40;107573;1253;99073;-62
2023/12/08 06:49:57;;;;;;;43.30;21.00;;;;;;;-1.51;76.68;101807.74;107569;1252;113837;-62
2023/12/08 06:52:26;;;;;;;50.80;22.40;;;;;;;-1.58;76.38;101807.01;107580;1256;108546;-63
2023/12/08 06:54:55;;;;;;;44.20;21.10;;;;;;;-1.67;76.55;101806.51;107640;1253;107678;-63
2023/12/08 06:57:23;;;;;;;49.40;23.30;;;;;;;-1.73;76.54;101808.55;107572;1254;99281;-63
2023/12/08 06:59:52;;;;;;;49.30;22.30;;;;;;;-1.76;76.64;101805.63;107529;1253;99704;-63
2023/12/08 07:02:21;;;;;;;51.40;22.90;;;;;;;-1.69;77.05;101806.56;107561;1254;113554;-62
2023/12/08 07:04:49;;;;;;;47.30;22.30;;;;;;;-1.57;77.45;101806.12;107621;1256;109368;-63
2023/12/08 07:07:18;;;;;;;43.60;22.70;;;;;;;-1.44;77.43;101806.70;107578;1256;108256;-62
2023/12/08 07:09:46;;;;;;;42.00;21.90;;;;;;;-1.33;77.00;101802.79;107606;1253;99173;-62
2023/12/08 07:12:14;;;;;;;54.00;22.10;;;;;;;-1.36;76.26;101803.39;107600;1252;99066;-64
2023/12/08 07:14:43;;;;;;;41.20;21.60;;;;;;;-1.42;76.28;101803.15;107567;1254;113154;-62
2023/12/08 07:17:12;;;;;;;50.70;23.30;;;;;;;-1.50;76.06;101796.83;107570;1253;108744;-62
2023/12/08 07:19:40;;;;;;;50.60;23.90;;;;;;;-1.55;76.48;101793.23;107577;1255;106617;-63
2023/12/08 07:22:09;;;;;;;56.20;24.20;;;;;;;-1.59;76.36;101785.92;107585;1254;99093;-64
2023/12/08 07:24:37;;;;;;;46.60;22.70;;;;;;;-1.55;76.69;101781.61;107639;1251;99058;-66
2023/12/08 07:27:06;;;;;;;46.20;22.70;;;;;;;-1.53;76.67;101783.70;107553;1256;113470;-63
2023/12/08 07:29:34;;;;;;;43.20;21.20;;;;;;;-1.44;76.95;101781.91;107573;1254;108797;-62
2023/12/08 07:32:03;;;;;;;42.40;20.70;;;;;;;-1.32;77.08;101780.22;107595;1256;107288;-63
2023/12/08 07:34:31;;;;;;;43.20;19.60;;;;;;;-1.18;77.04;101782.02;107644;1256;99840;-62
2023/12/08 07:37:00;;;;;;;44.90;20.60;;;;;;;-1.07;76.64;101776.84;107638;1254;99149;-64
2023/12/08 07:39:28;;;;;;;44.30;19.80;;;;;;;-1.01;75.97;101776.55;107594;1256;112113;-63
2023/12/08 07:41:56;;;;;;;37.40;18.80;;;;;;;-1.04;75.72;101775.02;107602;1251;110410;-61
2023/12/08 07:44:25;;;;;;;44.40;21.90;;;;;;;-1.01;76.04;101773.71;107504;1253;108767;-63
2023/12/08 07:46:54;;;;;;;49.00;21.60;;;;;;;-0.97;76.15;101775.18;107536;1254;99182;-62
2023/12/08 07:49:22;;;;;;;48.70;22.50;;;;;;;-0.96;75.89;101774.29;107636;1256;99075;-65
2023/12/08 07:51:51;;;;;;;42.80;21.80;;;;;;;-0.92;76.13;101771.21;107578;1251;114917;-62
2023/12/08 07:54:19;;;;;;;42.50;20.10;;;;;;;-0.86;75.94;101769.46;107630;1251;109713;-63
2023/12/08 07:56:48;;;;;;;34.40;18.10;;;;;;;-0.83;75.60;101769.40;107575;1251;108183;-62
2023/12/08 07:59:17;;;;;;;33.90;16.70;;;;;;;-0.83;75.46;101770.11;107555;1255;99062;-63
2023/12/08 08:01:45;;;;;;;40.50;19.40;;;;;;;-0.84;74.32;101768.54;107608;1256;99262;-62
2023/12/08 08:04:15;;;;;;;36.00;18.20;;;;;;;-0.90;74.63;101770.80;107598;1253;112633;-63
2023/12/08 08:06:43;;;;;;;32.90;17.20;;;;;;;-0.84;75.14;101770.66;107587;1254;110402;-62
2023/12/08 08:09:11;;;;;;;34.90;17.80;;;;;;;-0.79;75.09;101770.18;107542;1253;107408;-64
2023/12/08 08:11:40;;;;;;;31.40;18.20;;;;;;;-0.75;74.84;101767.24;107559;1251;99180;-62
2023/12/08 08:14:08;;;;;;;36.70;18.20;;;;;;;-0.72;74.76;101771.05;107591;1251;100885;-63
2023/12/08 08:16:37;;;;;;;37.10;17.60;;;;;;;-0.66;75.00;101772.31;107608;1251;113131;-63
2023/12/08 08:19:05;;;;;;;34.50;17.80;;;;;;;-0.59;74.36;101769.52;107614;1251;109229;-62
2023/12/08 08:21:34;;;;;;;34.90;17.20;;;;;;;-0.59;73.94;101771.27;107560;1251;108200;-63
2023/12/08 08:24:03;;;;;;;35.60;19.00;;;;;;;-0.56;74.22;101766.77;107582;1251;99954;-61
2023/12/08 08:26:32;;;;;;;30.90;16.10;;;;;;;-0.51;74.10;101762.92;107612;1254;99069;-63
2023/12/08 08:29:00;;;;;;;34.60;17.20;;;;;;;-0.45;73.28;101762.08;107547;1253;112605;-62
2023/12/08 08:31:29;;;;;;;31.90;16.30;;;;;;;-0.50;72.92;101765.02;107553;1253;110062;-61
2023/12/08 08:33:57;;;;;;;31.80;17.00;;;;;;;-0.50;73.58;101766.42;107556;1251;108197;-62
2023/12/08 08:36:25;;;;;;;32.30;16.20;;;;;;;-0.45;73.47;101763.84;107510;1253;99180;-63
2023/12/08 08:38:54;;;;;;;33.20;16.00;;;;;;;-0.43;73.43;101765.04;107563;1257;99920;-63
2023/12/08 08:41:23;;;;;;;29.80;16.50;;;;;;;-0.39;72.96;101765.98;107555;1254;113179;-62
2023/12/08 08:43:52;;;;;;;31.90;16.30;;;;;;;-0.40;72.83;101767.95;107617;1254;109057;-64
2023/12/08 08:46:20;;;;;;;28.00;15.50;;;;;;;-0.44;72.78;101770.17;107636;1251;107360;-61
2023/12/08 08:48:49;;;;;;;26.00;13.20;;;;;;;-0.44;72.84;101767.35;107560;1251;99161;-63
2023/12/08 08:51:17;;;;;;;28.00;15.00;;;;;;;-0.49;71.83;101765.17;107625;1251;99054;-61
2023/12/08 08:53:46;;;;;;;34.00;16.80;;;;;;;-0.56;72.31;101763.24;107580;1256;113124;-63
2023/12/08 08:56:16;;;;;;;28.10;16.80;;;;;;;-0.51;72.89;101764.34;107647;1251;109666;-61
2023/12/08 08:58:44;;;;;;;29.10;16.90;;;;;;;-0.44;73.02;101766.83;107568;1255;106327;-63
2023/12/08 09:01:12;;;;;;;25.70;15.20;;;;;;;-0.39;73.23;101767.56;107554;1251;99312;-62
2023/12/08 09:03:41;;;;;;;29.00;15.70;;;;;;;-0.36;72.83;101761.86;107608;1251;99713;-64
2023/12/08 09:06:09;;;;;;;26.40;14.50;;;;;;;-0.35;72.75;101760.78;107595;1254;112655;-63
2023/12/08 09:08:38;;;;;;;26.50;15.30;;;;;;;-0.36;71.89;101760.78;107470;1253;110366;-62
2023/12/08 09:11:06;;;;;;;27.00;15.20;;;;;;;-0.44;71.53;101763.13;107613;1251;107477;-63
2023/12/08 09:13:34;;;;;;;27.00;14.30;;;;;;;-0.49;71.87;101767.11;107556;1251;99250;-65
2023/12/08 09:16:04;;;;;;;27.90;15.20;;;;;;;-0.48;72.07;101763.05;107585;1251;99076;-64
2023/12/08 09:18:32;;;;;;;28.20;15.50;;;;;;;-0.44;72.28;101756.23;107621;1254;113640;-63
2023/12/08 09:21:01;;;;;;;26.70;15.10;;;;;;;-0.42;72.31;101750.20;107545;1255;109961;-64
2023/12/08 09:23:29;;;;;;;25.60;14.10;;;;;;;-0.34;72.43;101740.98;107566;1255;107304;-63
2023/12/08 09:25:59;;;;;;;28.20;14.90;;;;;;;-0.14;71.23;101738.85;107546;1251;99179;-64
2023/12/08 09:28:27;;;;;;;31.50;16.70;;;;;;;0.05;71.39;101735.85;107598;1251;101038;-61
2023/12/08 09:30:56;;;;;;;28.90;15.70;;;;;;;0.19;71.53;101740.23;107601;1251;112684;-61
2023/12/08 09:33:24;;;;;;;27.20;16.00;;;;;;;0.37;71.48;101738.08;107609;1251;108464;-63
2023/12/08 09:35:55;;;;;;;25.20;14.90;;;;;;;0.46;71.18;101741.35;107592;1256;108009;-62
2023/12/08 09:38:23;;;;;;;28.80;15.00;;;;;;;0.49;70.91;101740.89;107543;1254;99182;-62
2023/12/08 09:41:04;;;;;;;24.00;14.40;;;;;;;0.39;69.61;101742.42;107615;1251;99058;-63
2023/12/08 09:43:47;;;;;;;28.50;17.10;;;;;;;0.43;70.26;101743.02;107604;1256;112318;-62
2023/12/08 09:46:16;;;;;;;24.70;14.20;;;;;;;0.45;69.24;101743.66;107517;1252;108390;-63
2023/12/08 09:48:48;;;;;;;25.60;14.40;;;;;;;0.41;68.96;101743.09;107601;1251;107513;-64
2023/12/08 09:51:17;;;;;;;22.80;14.20;;;;;;;0.35;68.88;101745.03;107704;1252;99169;-62
2023/12/08 09:53:47;;;;;;;29.00;13.30;;;;;;;0.28;68.59;101746.11;107587;1253;99071;-63
2023/12/08 09:56:18;;;;;;;25.10;13.80;;;;;;;0.22;69.05;101749.13;107688;1251;112465;-62
2023/12/08 09:58:48;;;;;;;31.90;14.30;;;;;;;0.17;68.55;101748.02;107579;1251;109556;-62
2023/12/08 10:01:25;;;;;;;27.20;15.00;;;;;;;0.09;68.53;101755.67;104211;1292;636300;-60
2023/12/08 10:03:53;;;;;;;24.20;13.70;;;;;;;0.02;68.82;101751.98;106672;1267;95813;-62
2023/12/08 10:06:23;;;;;;;25.20;14.20;;;;;;;0.00;69.19;101754.33;106645;1267;95828;-61
2023/12/08 10:08:51;;;;;;;24.70;13.40;;;;;;;0.01;69.13;101749.91;106722;1265;107725;-61
2023/12/08 10:11:20;;;;;;;25.30;13.60;;;;;;;0.00;69.30;101745.52;106645;1267;109689;-62
2023/12/08 10:13:50;;;;;;;22.00;11.70;;;;;;;0.04;69.21;101739.21;106654;1268;107544;-63
2023/12/08 10:16:18;;;;;;;29.10;13.60;;;;;;;0.05;69.09;101738.14;106510;1264;95800;-62
2023/12/08 10:18:48;;;;;;;26.20;14.40;;;;;;;0.07;69.32;101733.86;106776;1264;95809;-64
2023/12/08 10:21:19;;;;;;;19.80;11.70;;;;;;;0.07;69.21;101731.54;106807;1264;106701;-63
2023/12/08 10:24:02;;;;;;;23.30;12.80;;;;;;;0.11;69.26;101729.34;106762;1264;109044;-63
2023/12/08 10:26:32;;;;;;;27.60;14.10;;;;;;;0.16;69.60;101725.66;107312;1254;107626;-62
2023/12/08 10:29:01;;;;;;;30.30;16.00;;;;;;;0.17;68.77;101727.55;107380;1255;95815;-63
2023/12/08 10:31:29;;;;;;;30.10;16.70;;;;;;;0.14;68.39;101726.42;107406;1254;95789;-63
2023/12/08 10:33:58;;;;;;;30.50;16.90;;;;;;;0.22;69.11;101721.41;107402;1254;109308;-63
2023/12/08 10:36:27;;;;;;;28.10;16.50;;;;;;;0.30;68.73;101719.23;107338;1257;110026;-66
2023/12/08 10:38:56;;;;;;;34.70;18.50;;;;;;;0.36;68.48;101721.19;107315;1257;108339;-63
2023/12/08 10:41:24;;;;;;;31.20;17.90;;;;;;;0.39;68.60;101721.61;107266;1257;95791;-63
2023/12/08 10:43:52;;;;;;;31.10;16.60;;;;;;;0.41;68.43;101719.96;107348;1254;95858;-62
2023/12/08 10:46:22;;;;;;;31.80;18.00;;;;;;;0.40;67.85;101724.05;107326;1257;108706;-62
2023/12/08 10:48:51;;;;;;;32.50;17.20;;;;;;;0.41;68.18;101721.92;107280;1254;108857;-63
2023/12/08 10:51:21;;;;;;;30.60;17.20;;;;;;;0.47;68.32;101725.78;107338;1254;107646;-64
2023/12/08 10:53:50;;;;;;;30.70;17.20;;;;;;;0.56;68.34;101722.34;107328;1254;95888;-62
2023/12/08 10:56:21;;;;;;;27.30;16.70;;;;;;;0.63;68.14;101723.70;107342;1257;95947;-63
2023/12/08 10:58:58;;;;;;;33.70;16.90;;;;;;;0.61;67.86;101716.87;107377;1254;110818;-63
2023/12/08 11:01:32;;;;;;;33.10;15.90;;;;;;;0.58;67.63;101712.02;107333;1255;108630;-64
2023/12/08 11:04:05;;;;;;;29.70;15.80;;;;;;;0.53;67.68;101712.18;107349;1257;107757;-63
2023/12/08 11:06:47;;;;;;;25.40;13.90;;;;;;;0.50;67.83;101715.65;107334;1255;95986;-62